sensor_id;sensor_type;location;lat;lon;timestamp;P1;durP1;ratioP1;P2;durP2;ratioP2
68614;SDS011;55593;51.994;5.882;2022-08-11T00:01:45;6.43;;;2.13;;
68614;SDS011;55593;51.994;5.882;2022-08-11T00:04:17;6.10;;;2.15;;
68614;SDS011;55593;51.994;5.882;2022-08-11T00:06:47;13.77;;;2.50;;
68614;SDS011;55593;51.994;5.882;2022-08-11T00:09:18;6.80;;;2.40;;
68614;SDS011;55593;51.994;5.882;2022-08-11T00:11:50;8.45;;;2.25;;
68614;SDS011;55593;51.994;5.882;2022-08-11T00:14:21;11.35;;;2.70;;
68614;SDS011;55593;51.994;5.882;2022-08-11T00:16:55;5.75;;;2.22;;
68614;SDS011;55593;51.994;5.882;2022-08-11T00:19:27;4.22;;;2.05;;
68614;SDS011;55593;51.994;5.882;2022-08-11T00:21:58;5.90;;;2.17;;
68614;SDS011;55593;51.994;5.882;2022-08-11T00:24:31;5.53;;;2.38;;
68614;SDS011;55593;51.994;5.882;2022-08-11T00:27:00;6.43;;;2.67;;
68614;SDS011;55593;51.994;5.882;2022-08-11T00:29:30;4.38;;;2.08;;
68614;SDS011;55593;51.994;5.882;2022-08-11T00:32:04;5.68;;;2.20;;
68614;SDS011;55593;51.994;5.882;2022-08-11T00:34:35;4.72;;;1.85;;
68614;SDS011;55593;51.994;5.882;2022-08-11T00:37:06;7.40;;;2.42;;
68614;SDS011;55593;51.994;5.882;2022-08-11T00:39:41;4.50;;;2.05;;
68614;SDS011;55593;51.994;5.882;2022-08-11T00:42:15;5.43;;;2.50;;
68614;SDS011;55593;51.994;5.882;2022-08-11T00:44:52;6.28;;;2.20;;
68614;SDS011;55593;51.994;5.882;2022-08-11T00:47:34;5.28;;;2.45;;
68614;SDS011;55593;51.994;5.882;2022-08-11T00:50:13;6.40;;;2.20;;
68614;SDS011;55593;51.994;5.882;2022-08-11T00:59:05;3.97;;;2.05;;
68614;SDS011;55593;51.994;5.882;2022-08-11T01:01:56;7.50;;;2.10;;
68614;SDS011;55593;51.994;5.882;2022-08-11T01:04:37;5.03;;;2.20;;
68614;SDS011;55593;51.994;5.882;2022-08-11T01:07:37;9.60;;;2.45;;
68614;SDS011;55593;51.994;5.882;2022-08-11T01:10:25;6.00;;;2.38;;
68614;SDS011;55593;51.994;5.882;2022-08-11T01:13:18;8.48;;;2.20;;
68614;SDS011;55593;51.994;5.882;2022-08-11T01:22:27;9.57;;;2.47;;
68614;SDS011;55593;51.994;5.882;2022-08-11T01:34:19;7.78;;;2.30;;
68614;SDS011;55593;51.994;5.882;2022-08-11T01:37:39;5.20;;;2.28;;
68614;SDS011;55593;51.994;5.882;2022-08-11T01:40:49;6.95;;;2.75;;
68614;SDS011;55593;51.994;5.882;2022-08-11T01:46:29;3.88;;;2.20;;
68614;SDS011;55593;51.994;5.882;2022-08-11T01:49:02;8.73;;;2.55;;
68614;SDS011;55593;51.994;5.882;2022-08-11T01:51:42;5.88;;;2.20;;
68614;SDS011;55593;51.994;5.882;2022-08-11T01:54:20;6.18;;;2.60;;
68614;SDS011;55593;51.994;5.882;2022-08-11T01:56:55;7.28;;;2.78;;
68614;SDS011;55593;51.994;5.882;2022-08-11T01:59:31;7.28;;;2.38;;
68614;SDS011;55593;51.994;5.882;2022-08-11T02:05:22;6.85;;;2.67;;
68614;SDS011;55593;51.994;5.882;2022-08-11T02:07:57;12.88;;;2.50;;
68614;SDS011;55593;51.994;5.882;2022-08-11T02:10:34;7.10;;;2.38;;
68614;SDS011;55593;51.994;5.882;2022-08-11T02:13:23;4.65;;;2.35;;
68614;SDS011;55593;51.994;5.882;2022-08-11T02:16:04;8.88;;;3.15;;
68614;SDS011;55593;51.994;5.882;2022-08-11T02:18:41;7.43;;;2.30;;
68614;SDS011;55593;51.994;5.882;2022-08-11T02:21:28;12.55;;;2.45;;
68614;SDS011;55593;51.994;5.882;2022-08-11T02:24:13;9.23;;;2.95;;
68614;SDS011;55593;51.994;5.882;2022-08-11T02:26:48;8.43;;;2.80;;
68614;SDS011;55593;51.994;5.882;2022-08-11T02:29:21;5.30;;;2.55;;
68614;SDS011;55593;51.994;5.882;2022-08-11T02:31:53;7.13;;;2.72;;
68614;SDS011;55593;51.994;5.882;2022-08-11T02:34:46;7.65;;;2.80;;
68614;SDS011;55593;51.994;5.882;2022-08-11T02:37:27;5.57;;;2.70;;
68614;SDS011;55593;51.994;5.882;2022-08-11T02:40:14;6.97;;;2.50;;
68614;SDS011;55593;51.994;5.882;2022-08-11T02:45:48;5.40;;;2.70;;
68614;SDS011;55593;51.994;5.882;2022-08-11T02:48:28;6.22;;;3.13;;
68614;SDS011;55593;51.994;5.882;2022-08-11T02:51:19;6.30;;;3.00;;
68614;SDS011;55593;51.994;5.882;2022-08-11T02:53:56;10.68;;;2.70;;
68614;SDS011;55593;51.994;5.882;2022-08-11T02:56:37;7.18;;;2.90;;
68614;SDS011;55593;51.994;5.882;2022-08-11T02:59:16;7.45;;;2.90;;
68614;SDS011;55593;51.994;5.882;2022-08-11T03:02:05;9.43;;;3.25;;
68614;SDS011;55593;51.994;5.882;2022-08-11T03:04:41;7.35;;;2.83;;
68614;SDS011;55593;51.994;5.882;2022-08-11T03:07:29;6.65;;;2.95;;
68614;SDS011;55593;51.994;5.882;2022-08-11T03:10:02;6.47;;;3.25;;
68614;SDS011;55593;51.994;5.882;2022-08-11T03:12:38;8.55;;;3.00;;
68614;SDS011;55593;51.994;5.882;2022-08-11T03:15:28;6.32;;;3.00;;
68614;SDS011;55593;51.994;5.882;2022-08-11T03:18:14;4.28;;;2.50;;
68614;SDS011;55593;51.994;5.882;2022-08-11T03:20:50;5.88;;;3.60;;
68614;SDS011;55593;51.994;5.882;2022-08-11T03:23:26;6.65;;;2.90;;
68614;SDS011;55593;51.994;5.882;2022-08-11T03:26:06;6.57;;;3.03;;
68614;SDS011;55593;51.994;5.882;2022-08-11T03:28:42;6.47;;;3.00;;
68614;SDS011;55593;51.994;5.882;2022-08-11T03:33:52;6.75;;;3.15;;
68614;SDS011;55593;51.994;5.882;2022-08-11T03:39:38;5.32;;;3.28;;
68614;SDS011;55593;51.994;5.882;2022-08-11T03:42:17;5.30;;;3.17;;
68614;SDS011;55593;51.994;5.882;2022-08-11T03:44:50;6.03;;;2.92;;
68614;SDS011;55593;51.994;5.882;2022-08-11T03:47:42;5.55;;;3.00;;
68614;SDS011;55593;51.994;5.882;2022-08-11T03:50:21;7.28;;;3.45;;
68614;SDS011;55593;51.994;5.882;2022-08-11T03:53:00;8.25;;;3.22;;
68614;SDS011;55593;51.994;5.882;2022-08-11T03:55:42;6.65;;;3.35;;
68614;SDS011;55593;51.994;5.882;2022-08-11T03:58:30;7.85;;;3.33;;
68614;SDS011;55593;51.994;5.882;2022-08-11T04:01:20;6.07;;;3.25;;
68614;SDS011;55593;51.994;5.882;2022-08-11T04:07:12;6.90;;;3.50;;
68614;SDS011;55593;51.994;5.882;2022-08-11T04:13:28;9.70;;;3.20;;
68614;SDS011;55593;51.994;5.882;2022-08-11T04:16:15;10.43;;;3.72;;
68614;SDS011;55593;51.994;5.882;2022-08-11T04:19:10;13.23;;;3.60;;
68614;SDS011;55593;51.994;5.882;2022-08-11T04:25:02;8.82;;;3.38;;
68614;SDS011;55593;51.994;5.882;2022-08-11T04:31:02;6.70;;;3.38;;
68614;SDS011;55593;51.994;5.882;2022-08-11T04:33:46;5.95;;;2.90;;
68614;SDS011;55593;51.994;5.882;2022-08-11T04:36:34;5.50;;;3.05;;
68614;SDS011;55593;51.994;5.882;2022-08-11T04:39:27;6.75;;;2.97;;
68614;SDS011;55593;51.994;5.882;2022-08-11T04:42:12;9.93;;;3.47;;
68614;SDS011;55593;51.994;5.882;2022-08-11T04:45:39;8.98;;;3.08;;
68614;SDS011;55593;51.994;5.882;2022-08-11T04:54:45;8.07;;;2.80;;
68614;SDS011;55593;51.994;5.882;2022-08-11T04:57:36;5.20;;;2.65;;
68614;SDS011;55593;51.994;5.882;2022-08-11T05:00:27;5.20;;;2.78;;
68614;SDS011;55593;51.994;5.882;2022-08-11T05:12:10;6.53;;;2.65;;
68614;SDS011;55593;51.994;5.882;2022-08-11T05:14:47;6.75;;;3.05;;
68614;SDS011;55593;51.994;5.882;2022-08-11T05:17:33;6.95;;;2.47;;
68614;SDS011;55593;51.994;5.882;2022-08-11T05:20:18;4.97;;;3.58;;
68614;SDS011;55593;51.994;5.882;2022-08-11T05:23:03;6.47;;;2.70;;
68614;SDS011;55593;51.994;5.882;2022-08-11T05:25:45;9.05;;;3.22;;
68614;SDS011;55593;51.994;5.882;2022-08-11T05:28:32;7.43;;;2.80;;
68614;SDS011;55593;51.994;5.882;2022-08-11T05:31:16;5.50;;;3.05;;
68614;SDS011;55593;51.994;5.882;2022-08-11T05:34:00;7.22;;;2.70;;
68614;SDS011;55593;51.994;5.882;2022-08-11T05:36:48;4.75;;;2.63;;
68614;SDS011;55593;51.994;5.882;2022-08-11T05:39:20;4.40;;;3.28;;
68614;SDS011;55593;51.994;5.882;2022-08-11T05:42:04;5.40;;;2.75;;
68614;SDS011;55593;51.994;5.882;2022-08-11T05:44:49;4.88;;;2.88;;
68614;SDS011;55593;51.994;5.882;2022-08-11T05:47:31;4.93;;;3.13;;
68614;SDS011;55593;51.994;5.882;2022-08-11T05:50:14;6.22;;;2.63;;
68614;SDS011;55593;51.994;5.882;2022-08-11T05:52:57;7.32;;;3.22;;
68614;SDS011;55593;51.994;5.882;2022-08-11T05:55:39;7.43;;;2.83;;
68614;SDS011;55593;51.994;5.882;2022-08-11T05:58:21;10.00;;;3.03;;
68614;SDS011;55593;51.994;5.882;2022-08-11T06:00:53;4.93;;;2.72;;
68614;SDS011;55593;51.994;5.882;2022-08-11T06:03:25;5.55;;;2.63;;
68614;SDS011;55593;51.994;5.882;2022-08-11T06:05:57;7.15;;;2.30;;
68614;SDS011;55593;51.994;5.882;2022-08-11T06:08:27;5.60;;;2.53;;
68614;SDS011;55593;51.994;5.882;2022-08-11T06:11:01;6.68;;;3.10;;
68614;SDS011;55593;51.994;5.882;2022-08-11T06:13:32;6.18;;;2.70;;
68614;SDS011;55593;51.994;5.882;2022-08-11T06:16:04;7.85;;;2.67;;
68614;SDS011;55593;51.994;5.882;2022-08-11T06:18:33;6.47;;;2.90;;
68614;SDS011;55593;51.994;5.882;2022-08-11T06:21:07;5.10;;;2.33;;
68614;SDS011;55593;51.994;5.882;2022-08-11T06:23:36;4.57;;;2.58;;
68614;SDS011;55593;51.994;5.882;2022-08-11T06:26:07;6.75;;;2.47;;
68614;SDS011;55593;51.994;5.882;2022-08-11T06:28:37;10.75;;;2.70;;
68614;SDS011;55593;51.994;5.882;2022-08-11T06:31:13;9.63;;;2.70;;
68614;SDS011;55593;51.994;5.882;2022-08-11T06:33:50;10.32;;;2.95;;
68614;SDS011;55593;51.994;5.882;2022-08-11T06:36:24;7.20;;;2.58;;
68614;SDS011;55593;51.994;5.882;2022-08-11T06:39:01;6.57;;;2.50;;
68614;SDS011;55593;51.994;5.882;2022-08-11T06:41:39;9.38;;;2.40;;
68614;SDS011;55593;51.994;5.882;2022-08-11T06:44:14;6.95;;;2.20;;
68614;SDS011;55593;51.994;5.882;2022-08-11T06:46:49;8.73;;;2.72;;
68614;SDS011;55593;51.994;5.882;2022-08-11T06:49:21;12.10;;;2.90;;
68614;SDS011;55593;51.994;5.882;2022-08-11T06:52:12;6.45;;;2.90;;
68614;SDS011;55593;51.994;5.882;2022-08-11T06:54:42;6.03;;;2.10;;
68614;SDS011;55593;51.994;5.882;2022-08-11T06:57:22;10.82;;;2.83;;
68614;SDS011;55593;51.994;5.882;2022-08-11T07:00:04;8.68;;;2.55;;
68614;SDS011;55593;51.994;5.882;2022-08-11T07:03:00;13.98;;;2.90;;
68614;SDS011;55593;51.994;5.882;2022-08-11T07:05:38;5.05;;;2.60;;
68614;SDS011;55593;51.994;5.882;2022-08-11T07:08:17;7.82;;;2.55;;
68614;SDS011;55593;51.994;5.882;2022-08-11T07:11:11;5.40;;;2.47;;
68614;SDS011;55593;51.994;5.882;2022-08-11T07:14:11;8.73;;;2.80;;
68614;SDS011;55593;51.994;5.882;2022-08-11T07:16:57;8.85;;;2.65;;
68614;SDS011;55593;51.994;5.882;2022-08-11T07:19:29;5.60;;;2.60;;
68614;SDS011;55593;51.994;5.882;2022-08-11T07:22:11;8.00;;;2.25;;
68614;SDS011;55593;51.994;5.882;2022-08-11T07:24:54;7.38;;;2.45;;
68614;SDS011;55593;51.994;5.882;2022-08-11T07:27:40;11.30;;;2.72;;
68614;SDS011;55593;51.994;5.882;2022-08-11T07:30:23;10.85;;;2.83;;
68614;SDS011;55593;51.994;5.882;2022-08-11T07:32:52;10.75;;;3.13;;
68614;SDS011;55593;51.994;5.882;2022-08-11T07:35:27;7.03;;;2.40;;
68614;SDS011;55593;51.994;5.882;2022-08-11T07:38:00;6.57;;;2.30;;
68614;SDS011;55593;51.994;5.882;2022-08-11T07:40:32;5.45;;;2.50;;
68614;SDS011;55593;51.994;5.882;2022-08-11T07:43:02;12.68;;;3.03;;
68614;SDS011;55593;51.994;5.882;2022-08-11T07:45:31;7.13;;;3.35;;
68614;SDS011;55593;51.994;5.882;2022-08-11T07:48:14;4.18;;;2.58;;
68614;SDS011;55593;51.994;5.882;2022-08-11T07:50:58;9.80;;;2.88;;
68614;SDS011;55593;51.994;5.882;2022-08-11T07:53:41;4.65;;;2.55;;
68614;SDS011;55593;51.994;5.882;2022-08-11T07:56:10;6.60;;;2.65;;
68614;SDS011;55593;51.994;5.882;2022-08-11T07:58:41;8.25;;;2.90;;
68614;SDS011;55593;51.994;5.882;2022-08-11T08:01:23;11.70;;;2.53;;
68614;SDS011;55593;51.994;5.882;2022-08-11T08:04:06;7.47;;;2.95;;
68614;SDS011;55593;51.994;5.882;2022-08-11T08:06:54;14.75;;;3.33;;
68614;SDS011;55593;51.994;5.882;2022-08-11T08:09:36;10.55;;;2.90;;
68614;SDS011;55593;51.994;5.882;2022-08-11T08:12:19;8.90;;;2.85;;
68614;SDS011;55593;51.994;5.882;2022-08-11T08:15:04;5.45;;;2.60;;
68614;SDS011;55593;51.994;5.882;2022-08-11T08:17:47;9.93;;;2.80;;
68614;SDS011;55593;51.994;5.882;2022-08-11T08:20:17;5.50;;;3.17;;
68614;SDS011;55593;51.994;5.882;2022-08-11T08:22:51;6.13;;;3.00;;
68614;SDS011;55593;51.994;5.882;2022-08-11T08:25:22;12.85;;;2.95;;
68614;SDS011;55593;51.994;5.882;2022-08-11T08:27:53;8.40;;;2.83;;
68614;SDS011;55593;51.994;5.882;2022-08-11T08:30:23;7.60;;;3.20;;
68614;SDS011;55593;51.994;5.882;2022-08-11T08:33:06;9.27;;;3.20;;
68614;SDS011;55593;51.994;5.882;2022-08-11T08:35:35;9.43;;;3.10;;
68614;SDS011;55593;51.994;5.882;2022-08-11T08:38:08;9.38;;;3.10;;
68614;SDS011;55593;51.994;5.882;2022-08-11T08:40:37;5.30;;;2.78;;
68614;SDS011;55593;51.994;5.882;2022-08-11T08:43:09;5.22;;;2.50;;
68614;SDS011;55593;51.994;5.882;2022-08-11T08:45:42;7.07;;;3.10;;
68614;SDS011;55593;51.994;5.882;2022-08-11T08:48:12;8.40;;;2.70;;
68614;SDS011;55593;51.994;5.882;2022-08-11T08:50:49;5.68;;;2.70;;
68614;SDS011;55593;51.994;5.882;2022-08-11T08:53:38;6.93;;;2.80;;
68614;SDS011;55593;51.994;5.882;2022-08-11T08:56:09;7.45;;;2.83;;
68614;SDS011;55593;51.994;5.882;2022-08-11T08:58:38;7.50;;;2.58;;
68614;SDS011;55593;51.994;5.882;2022-08-11T09:01:09;4.43;;;2.42;;
68614;SDS011;55593;51.994;5.882;2022-08-11T09:03:39;8.73;;;3.20;;
68614;SDS011;55593;51.994;5.882;2022-08-11T09:06:08;11.20;;;3.25;;
68614;SDS011;55593;51.994;5.882;2022-08-11T09:08:42;7.35;;;2.88;;
68614;SDS011;55593;51.994;5.882;2022-08-11T09:11:12;13.88;;;2.80;;
68614;SDS011;55593;51.994;5.882;2022-08-11T09:13:54;6.43;;;2.60;;
68614;SDS011;55593;51.994;5.882;2022-08-11T09:16:23;6.50;;;2.55;;
68614;SDS011;55593;51.994;5.882;2022-08-11T09:18:52;4.20;;;2.35;;
68614;SDS011;55593;51.994;5.882;2022-08-11T09:21:25;7.40;;;2.60;;
68614;SDS011;55593;51.994;5.882;2022-08-11T09:23:56;6.78;;;2.95;;
68614;SDS011;55593;51.994;5.882;2022-08-11T09:26:38;7.20;;;3.17;;
68614;SDS011;55593;51.994;5.882;2022-08-11T09:29:26;8.10;;;3.50;;
68614;SDS011;55593;51.994;5.882;2022-08-11T09:31:56;8.32;;;3.25;;
68614;SDS011;55593;51.994;5.882;2022-08-11T09:34:26;12.15;;;3.47;;
68614;SDS011;55593;51.994;5.882;2022-08-11T09:36:55;7.00;;;3.03;;
68614;SDS011;55593;51.994;5.882;2022-08-11T09:39:41;10.60;;;3.00;;
68614;SDS011;55593;51.994;5.882;2022-08-11T09:42:23;5.25;;;2.70;;
68614;SDS011;55593;51.994;5.882;2022-08-11T09:45:14;6.15;;;2.80;;
68614;SDS011;55593;51.994;5.882;2022-08-11T09:47:42;7.28;;;2.80;;
68614;SDS011;55593;51.994;5.882;2022-08-11T09:50:11;6.32;;;2.58;;
68614;SDS011;55593;51.994;5.882;2022-08-11T09:52:43;5.80;;;3.30;;
68614;SDS011;55593;51.994;5.882;2022-08-11T09:55:16;6.20;;;2.78;;
68614;SDS011;55593;51.994;5.882;2022-08-11T09:57:45;13.23;;;3.20;;
68614;SDS011;55593;51.994;5.882;2022-08-11T10:00:34;7.78;;;2.63;;
68614;SDS011;55593;51.994;5.882;2022-08-11T10:03:05;6.38;;;2.83;;
68614;SDS011;55593;51.994;5.882;2022-08-11T10:05:36;4.68;;;2.80;;
68614;SDS011;55593;51.994;5.882;2022-08-11T10:08:20;8.43;;;3.15;;
68614;SDS011;55593;51.994;5.882;2022-08-11T10:10:53;7.57;;;2.58;;
68614;SDS011;55593;51.994;5.882;2022-08-11T10:13:25;9.10;;;2.72;;
68614;SDS011;55593;51.994;5.882;2022-08-11T10:16:00;4.15;;;2.00;;
68614;SDS011;55593;51.994;5.882;2022-08-11T10:18:30;8.43;;;2.70;;
68614;SDS011;55593;51.994;5.882;2022-08-11T10:21:16;13.20;;;3.10;;
68614;SDS011;55593;51.994;5.882;2022-08-11T10:23:54;9.73;;;2.70;;
68614;SDS011;55593;51.994;5.882;2022-08-11T10:26:40;8.82;;;2.50;;
68614;SDS011;55593;51.994;5.882;2022-08-11T10:29:19;7.95;;;2.40;;
68614;SDS011;55593;51.994;5.882;2022-08-11T10:32:02;5.93;;;2.42;;
68614;SDS011;55593;51.994;5.882;2022-08-11T10:34:44;4.60;;;2.80;;
68614;SDS011;55593;51.994;5.882;2022-08-11T10:37:19;9.25;;;2.13;;
68614;SDS011;55593;51.994;5.882;2022-08-11T10:39:50;6.90;;;2.30;;
68614;SDS011;55593;51.994;5.882;2022-08-11T10:42:24;9.35;;;2.50;;
68614;SDS011;55593;51.994;5.882;2022-08-11T10:45:07;9.05;;;2.50;;
68614;SDS011;55593;51.994;5.882;2022-08-11T10:47:57;9.73;;;2.55;;
68614;SDS011;55593;51.994;5.882;2022-08-11T10:50:24;8.73;;;2.38;;
68614;SDS011;55593;51.994;5.882;2022-08-11T10:53:06;5.07;;;2.33;;
68614;SDS011;55593;51.994;5.882;2022-08-11T10:55:49;6.10;;;2.25;;
68614;SDS011;55593;51.994;5.882;2022-08-11T10:58:34;6.63;;;2.42;;
68614;SDS011;55593;51.994;5.882;2022-08-11T11:01:15;7.50;;;2.20;;
68614;SDS011;55593;51.994;5.882;2022-08-11T11:03:51;4.63;;;2.13;;
68614;SDS011;55593;51.994;5.882;2022-08-11T11:06:25;6.30;;;2.55;;
68614;SDS011;55593;51.994;5.882;2022-08-11T11:08:57;8.05;;;3.28;;
68614;SDS011;55593;51.994;5.882;2022-08-11T11:11:35;4.47;;;2.60;;
68614;SDS011;55593;51.994;5.882;2022-08-11T11:14:21;6.78;;;2.63;;
68614;SDS011;55593;51.994;5.882;2022-08-11T11:17:04;5.80;;;2.55;;
68614;SDS011;55593;51.994;5.882;2022-08-11T11:19:45;6.57;;;2.50;;
68614;SDS011;55593;51.994;5.882;2022-08-11T11:22:15;3.55;;;2.13;;
68614;SDS011;55593;51.994;5.882;2022-08-11T11:24:58;8.27;;;2.67;;
68614;SDS011;55593;51.994;5.882;2022-08-11T11:27:33;12.23;;;2.97;;
68614;SDS011;55593;51.994;5.882;2022-08-11T11:30:09;4.57;;;2.15;;
68614;SDS011;55593;51.994;5.882;2022-08-11T11:32:42;6.35;;;2.53;;
68614;SDS011;55593;51.994;5.882;2022-08-11T11:35:24;5.80;;;2.42;;
68614;SDS011;55593;51.994;5.882;2022-08-11T11:37:59;10.05;;;2.92;;
68614;SDS011;55593;51.994;5.882;2022-08-11T11:40:28;5.13;;;2.33;;
68614;SDS011;55593;51.994;5.882;2022-08-11T11:42:58;6.72;;;2.35;;
68614;SDS011;55593;51.994;5.882;2022-08-11T11:45:30;7.03;;;2.47;;
68614;SDS011;55593;51.994;5.882;2022-08-11T11:47:59;5.60;;;2.35;;
68614;SDS011;55593;51.994;5.882;2022-08-11T11:50:30;5.95;;;2.50;;
68614;SDS011;55593;51.994;5.882;2022-08-11T11:53:02;7.40;;;2.35;;
68614;SDS011;55593;51.994;5.882;2022-08-11T11:55:32;3.88;;;2.00;;
68614;SDS011;55593;51.994;5.882;2022-08-11T11:58:02;9.32;;;2.20;;
68614;SDS011;55593;51.994;5.882;2022-08-11T12:00:47;7.82;;;2.00;;
68614;SDS011;55593;51.994;5.882;2022-08-11T12:03:29;4.78;;;2.22;;
68614;SDS011;55593;51.994;5.882;2022-08-11T12:05:59;10.35;;;2.58;;
68614;SDS011;55593;51.994;5.882;2022-08-11T12:08:28;4.97;;;2.20;;
68614;SDS011;55593;51.994;5.882;2022-08-11T12:10:59;4.22;;;2.17;;
68614;SDS011;55593;51.994;5.882;2022-08-11T12:13:43;5.40;;;2.30;;
68614;SDS011;55593;51.994;5.882;2022-08-11T12:16:18;4.93;;;2.20;;
68614;SDS011;55593;51.994;5.882;2022-08-11T12:18:48;5.82;;;2.65;;
68614;SDS011;55593;51.994;5.882;2022-08-11T12:21:19;3.17;;;1.80;;
68614;SDS011;55593;51.994;5.882;2022-08-11T12:23:49;5.40;;;2.10;;
68614;SDS011;55593;51.994;5.882;2022-08-11T12:26:31;6.85;;;2.22;;
68614;SDS011;55593;51.994;5.882;2022-08-11T12:29:19;11.45;;;2.85;;
68614;SDS011;55593;51.994;5.882;2022-08-11T12:31:54;3.83;;;2.22;;
68614;SDS011;55593;51.994;5.882;2022-08-11T12:34:25;6.30;;;2.45;;
68614;SDS011;55593;51.994;5.882;2022-08-11T12:36:56;3.53;;;2.25;;
68614;SDS011;55593;51.994;5.882;2022-08-11T12:39:30;5.90;;;3.35;;
68614;SDS011;55593;51.994;5.882;2022-08-11T12:42:16;5.15;;;2.20;;
68614;SDS011;55593;51.994;5.882;2022-08-11T12:44:59;3.35;;;1.73;;
68614;SDS011;55593;51.994;5.882;2022-08-11T12:47:45;3.60;;;2.22;;
68614;SDS011;55593;51.994;5.882;2022-08-11T12:50:29;4.00;;;1.83;;
68614;SDS011;55593;51.994;5.882;2022-08-11T12:53:11;4.28;;;1.95;;
68614;SDS011;55593;51.994;5.882;2022-08-11T12:55:40;4.00;;;1.83;;
68614;SDS011;55593;51.994;5.882;2022-08-11T12:58:22;5.28;;;1.95;;
68614;SDS011;55593;51.994;5.882;2022-08-11T13:00:51;5.45;;;1.80;;
68614;SDS011;55593;51.994;5.882;2022-08-11T13:03:36;5.93;;;2.20;;
68614;SDS011;55593;51.994;5.882;2022-08-11T13:06:18;6.38;;;2.42;;
68614;SDS011;55593;51.994;5.882;2022-08-11T13:08:51;6.40;;;2.20;;
68614;SDS011;55593;51.994;5.882;2022-08-11T13:11:22;6.75;;;1.92;;
68614;SDS011;55593;51.994;5.882;2022-08-11T13:14:04;8.52;;;2.20;;
68614;SDS011;55593;51.994;5.882;2022-08-11T13:16:34;7.70;;;2.08;;
68614;SDS011;55593;51.994;5.882;2022-08-11T13:19:27;6.40;;;2.15;;
68614;SDS011;55593;51.994;5.882;2022-08-11T13:21:57;5.38;;;1.98;;
68614;SDS011;55593;51.994;5.882;2022-08-11T13:24:27;5.00;;;1.67;;
68614;SDS011;55593;51.994;5.882;2022-08-11T13:26:58;4.25;;;2.15;;
68614;SDS011;55593;51.994;5.882;2022-08-11T13:29:28;5.65;;;2.08;;
68614;SDS011;55593;51.994;5.882;2022-08-11T13:31:57;7.10;;;1.83;;
68614;SDS011;55593;51.994;5.882;2022-08-11T13:34:29;4.47;;;1.92;;
68614;SDS011;55593;51.994;5.882;2022-08-11T13:37:00;7.85;;;2.55;;
68614;SDS011;55593;51.994;5.882;2022-08-11T13:39:30;6.07;;;2.05;;
68614;SDS011;55593;51.994;5.882;2022-08-11T13:42:01;6.70;;;2.03;;
68614;SDS011;55593;51.994;5.882;2022-08-11T13:44:32;6.90;;;2.20;;
68614;SDS011;55593;51.994;5.882;2022-08-11T13:47:04;4.00;;;2.10;;
68614;SDS011;55593;51.994;5.882;2022-08-11T13:49:38;4.57;;;1.80;;
68614;SDS011;55593;51.994;5.882;2022-08-11T13:52:09;5.68;;;2.00;;
68614;SDS011;55593;51.994;5.882;2022-08-11T13:54:40;4.85;;;2.00;;
68614;SDS011;55593;51.994;5.882;2022-08-11T13:57:11;5.70;;;2.35;;
68614;SDS011;55593;51.994;5.882;2022-08-11T13:59:43;5.45;;;2.35;;
68614;SDS011;55593;51.994;5.882;2022-08-11T14:02:14;9.60;;;2.28;;
68614;SDS011;55593;51.994;5.882;2022-08-11T14:04:47;6.07;;;2.08;;
68614;SDS011;55593;51.994;5.882;2022-08-11T14:07:21;6.18;;;2.42;;
68614;SDS011;55593;51.994;5.882;2022-08-11T14:09:53;3.25;;;1.80;;
68614;SDS011;55593;51.994;5.882;2022-08-11T14:12:25;4.18;;;1.92;;
68614;SDS011;55593;51.994;5.882;2022-08-11T14:15:09;5.35;;;2.72;;
68614;SDS011;55593;51.994;5.882;2022-08-11T14:17:45;5.15;;;2.42;;
68614;SDS011;55593;51.994;5.882;2022-08-11T14:20:20;6.32;;;2.05;;
68614;SDS011;55593;51.994;5.882;2022-08-11T14:22:49;3.67;;;2.25;;
68614;SDS011;55593;51.994;5.882;2022-08-11T14:25:17;3.45;;;1.83;;
68614;SDS011;55593;51.994;5.882;2022-08-11T14:27:46;5.28;;;1.98;;
68614;SDS011;55593;51.994;5.882;2022-08-11T14:30:16;5.43;;;2.25;;
68614;SDS011;55593;51.994;5.882;2022-08-11T14:32:57;4.38;;;2.40;;
68614;SDS011;55593;51.994;5.882;2022-08-11T14:35:29;4.90;;;1.92;;
68614;SDS011;55593;51.994;5.882;2022-08-11T14:37:59;8.95;;;2.20;;
68614;SDS011;55593;51.994;5.882;2022-08-11T14:40:28;3.20;;;1.77;;
68614;SDS011;55593;51.994;5.882;2022-08-11T14:43:09;6.55;;;2.10;;
68614;SDS011;55593;51.994;5.882;2022-08-11T14:45:51;13.23;;;2.30;;
68614;SDS011;55593;51.994;5.882;2022-08-11T14:48:32;4.43;;;2.35;;
68614;SDS011;55593;51.994;5.882;2022-08-11T14:51:05;5.88;;;2.08;;
68614;SDS011;55593;51.994;5.882;2022-08-11T14:53:34;6.03;;;2.22;;
68614;SDS011;55593;51.994;5.882;2022-08-11T14:56:03;6.70;;;2.15;;
68614;SDS011;55593;51.994;5.882;2022-08-11T14:58:45;2.70;;;1.80;;
68614;SDS011;55593;51.994;5.882;2022-08-11T15:01:15;4.85;;;2.20;;
68614;SDS011;55593;51.994;5.882;2022-08-11T15:03:56;4.95;;;2.08;;
68614;SDS011;55593;51.994;5.882;2022-08-11T15:06:28;7.00;;;1.88;;
68614;SDS011;55593;51.994;5.882;2022-08-11T15:08:58;6.03;;;2.10;;
68614;SDS011;55593;51.994;5.882;2022-08-11T15:11:28;5.00;;;2.15;;
68614;SDS011;55593;51.994;5.882;2022-08-11T15:14:10;8.65;;;2.17;;
68614;SDS011;55593;51.994;5.882;2022-08-11T15:17:00;3.35;;;1.80;;
68614;SDS011;55593;51.994;5.882;2022-08-11T15:19:32;3.83;;;2.13;;
68614;SDS011;55593;51.994;5.882;2022-08-11T15:22:05;6.95;;;1.98;;
68614;SDS011;55593;51.994;5.882;2022-08-11T15:24:47;8.40;;;2.17;;
68614;SDS011;55593;51.994;5.882;2022-08-11T15:27:18;4.82;;;2.17;;
68614;SDS011;55593;51.994;5.882;2022-08-11T15:30:00;5.35;;;2.10;;
68614;SDS011;55593;51.994;5.882;2022-08-11T15:32:46;10.40;;;2.22;;
68614;SDS011;55593;51.994;5.882;2022-08-11T15:35:29;3.75;;;1.70;;
68614;SDS011;55593;51.994;5.882;2022-08-11T15:38:13;9.02;;;2.33;;
68614;SDS011;55593;51.994;5.882;2022-08-11T15:40:43;4.00;;;1.90;;
68614;SDS011;55593;51.994;5.882;2022-08-11T15:43:25;6.35;;;2.08;;
68614;SDS011;55593;51.994;5.882;2022-08-11T15:46:10;5.40;;;2.08;;
68614;SDS011;55593;51.994;5.882;2022-08-11T15:48:43;6.35;;;2.17;;
68614;SDS011;55593;51.994;5.882;2022-08-11T15:51:17;6.97;;;1.80;;
68614;SDS011;55593;51.994;5.882;2022-08-11T15:53:52;4.43;;;2.30;;
68614;SDS011;55593;51.994;5.882;2022-08-11T15:56:23;5.33;;;2.10;;
68614;SDS011;55593;51.994;5.882;2022-08-11T15:58:54;7.50;;;2.00;;
68614;SDS011;55593;51.994;5.882;2022-08-11T16:01:38;6.03;;;2.03;;
68614;SDS011;55593;51.994;5.882;2022-08-11T16:04:21;7.38;;;2.33;;
68614;SDS011;55593;51.994;5.882;2022-08-11T16:06:54;7.93;;;1.90;;
68614;SDS011;55593;51.994;5.882;2022-08-11T16:09:30;5.10;;;2.70;;
68614;SDS011;55593;51.994;5.882;2022-08-11T16:12:02;4.43;;;2.13;;
68614;SDS011;55593;51.994;5.882;2022-08-11T16:14:33;8.45;;;2.15;;
68614;SDS011;55593;51.994;5.882;2022-08-11T16:17:20;7.15;;;1.98;;
68614;SDS011;55593;51.994;5.882;2022-08-11T16:19:52;6.38;;;2.13;;
68614;SDS011;55593;51.994;5.882;2022-08-11T16:22:24;5.22;;;2.28;;
68614;SDS011;55593;51.994;5.882;2022-08-11T16:25:02;4.38;;;2.05;;
68614;SDS011;55593;51.994;5.882;2022-08-11T16:27:35;5.75;;;2.17;;
68614;SDS011;55593;51.994;5.882;2022-08-11T16:30:06;5.25;;;2.15;;
68614;SDS011;55593;51.994;5.882;2022-08-11T16:32:37;3.92;;;1.90;;
68614;SDS011;55593;51.994;5.882;2022-08-11T16:35:08;7.30;;;2.10;;
68614;SDS011;55593;51.994;5.882;2022-08-11T16:38:06;9.15;;;2.38;;
68614;SDS011;55593;51.994;5.882;2022-08-11T16:40:51;5.88;;;2.17;;
68614;SDS011;55593;51.994;5.882;2022-08-11T16:43:22;7.43;;;2.05;;
68614;SDS011;55593;51.994;5.882;2022-08-11T16:46:06;7.35;;;1.77;;
68614;SDS011;55593;51.994;5.882;2022-08-11T16:48:48;3.25;;;1.75;;
68614;SDS011;55593;51.994;5.882;2022-08-11T16:51:18;8.20;;;2.20;;
68614;SDS011;55593;51.994;5.882;2022-08-11T16:53:48;7.28;;;2.20;;